createdAt,value
2022-11-19T00:00:30.310Z,100699.75
2022-11-19T00:03:00.027Z,100644.44
2022-11-19T00:05:29.780Z,100709.16
2022-11-19T00:07:59.484Z,100695.47
2022-11-19T00:10:31.839Z,100676.94
2022-11-19T00:12:58.999Z,100697.56
2022-11-19T00:15:28.744Z,100686.00
2022-11-19T00:18:00.561Z,100693.53
2022-11-19T00:20:30.615Z,100698.56
2022-11-19T00:23:00.761Z,100694.19
2022-11-19T00:25:33.664Z,100694.03
2022-11-19T00:28:03.390Z,100695.91
2022-11-19T00:30:47.589Z,100675.66
2022-11-19T00:33:18.059Z,100697.75
2022-11-19T00:35:47.823Z,100698.38
2022-11-19T00:38:17.553Z,100699.88
2022-11-19T00:40:49.913Z,100686.56
2022-11-19T00:43:32.270Z,100707.13
2022-11-19T00:46:02.011Z,100684.75
2022-11-19T00:48:31.780Z,100705.00
2022-11-19T00:51:01.604Z,100676.50
2022-11-19T00:53:31.442Z,100713.94
2022-11-19T00:56:06.643Z,100716.22
2022-11-19T00:58:36.446Z,100689.91
2022-11-19T01:01:06.610Z,100701.97
2022-11-19T01:03:37.484Z,100722.41
2022-11-19T01:06:08.170Z,100722.97
2022-11-19T01:08:41.314Z,100715.06
2022-11-19T01:11:16.733Z,100731.28
2022-11-19T01:13:46.668Z,100731.19
2022-11-19T01:16:18.434Z,100738.41
2022-11-19T01:18:50.076Z,100747.00
2022-11-19T01:21:21.196Z,100732.44
2022-11-19T01:23:51.128Z,100741.41
2022-11-19T01:26:23.915Z,100748.56
2022-11-19T01:28:54.289Z,100737.16
2022-11-19T01:31:25.655Z,100739.00
2022-11-19T01:33:55.910Z,100728.78
2022-11-19T01:36:27.094Z,100739.00
2022-11-19T01:38:57.255Z,100648.81
2022-11-19T01:41:31.245Z,100729.13
2022-11-19T01:44:03.460Z,100750.84
2022-11-19T01:46:35.980Z,100750.38
2022-11-19T01:49:08.950Z,100731.66
2022-11-19T01:51:41.610Z,100756.06
2022-11-19T01:54:16.534Z,100752.28
2022-11-19T01:56:49.416Z,100758.78
2022-11-19T01:59:21.842Z,100767.31
2022-11-19T02:01:51.919Z,100776.00
2022-11-19T02:04:23.265Z,100773.66
2022-11-19T02:06:53.310Z,100784.25
2022-11-19T02:09:23.381Z,100779.44
2022-11-19T02:12:23.649Z,100785.78
2022-11-19T02:15:18.656Z,100790.31
2022-11-19T02:18:05.127Z,100765.16
2022-11-19T02:20:47.080Z,100778.31
2022-11-19T02:23:51.821Z,100790.97
2022-11-19T02:26:46.170Z,100776.00
2022-11-19T02:29:28.159Z,100783.03
2022-11-19T02:32:05.589Z,100795.09
2022-11-19T02:34:39.406Z,100780.72
2022-11-19T02:37:15.814Z,100789.69
2022-11-19T02:39:51.403Z,100806.06
2022-11-19T02:42:26.714Z,100795.94
2022-11-19T02:45:02.473Z,100805.25
2022-11-19T02:47:41.284Z,100802.66
2022-11-19T02:50:14.422Z,100803.97
2022-11-19T02:52:46.545Z,100808.78
2022-11-19T02:55:17.189Z,100806.41
2022-11-19T02:57:52.697Z,100815.75
2022-11-19T03:00:35.076Z,100801.97
2022-11-19T03:03:23.236Z,100806.91
2022-11-19T03:05:56.605Z,100815.78
2022-11-19T03:08:26.638Z,100807.16
2022-11-19T03:11:08.022Z,100813.09
2022-11-19T03:14:01.121Z,100810.00
2022-11-19T03:16:45.077Z,100818.06
2022-11-19T03:19:30.495Z,100824.25
2022-11-19T03:22:05.335Z,100826.13
2022-11-19T03:24:39.066Z,100798.25
2022-11-19T03:27:15.862Z,100826.47
2022-11-19T03:29:49.678Z,100840.75
2022-11-19T03:32:23.566Z,100816.50
2022-11-19T03:35:02.563Z,100820.91
2022-11-19T03:37:37.794Z,100835.38
2022-11-19T03:40:10.837Z,100837.13
2022-11-19T03:42:42.770Z,100832.97
2022-11-19T03:45:16.572Z,100839.91
2022-11-19T03:47:50.620Z,100811.00
2022-11-19T03:50:27.948Z,100810.78
2022-11-19T03:53:02.876Z,100841.25
2022-11-19T03:55:38.207Z,100838.72
2022-11-19T03:58:10.463Z,100839.13
2022-11-19T04:00:40.570Z,100858.47
2022-11-19T04:03:10.595Z,100839.13
2022-11-19T04:05:42.958Z,100855.38
2022-11-19T04:08:12.728Z,100813.66
2022-11-19T04:10:42.471Z,100854.91
2022-11-19T04:13:12.314Z,100858.75
2022-11-19T04:15:42.044Z,100849.78
2022-11-19T04:18:11.794Z,100834.81
2022-11-19T04:20:45.576Z,100855.03
2022-11-19T04:23:15.304Z,100853.00
2022-11-19T04:25:48.757Z,100856.50
2022-11-19T04:28:18.441Z,100856.66
2022-11-19T04:30:48.213Z,100859.81
2022-11-19T04:33:17.980Z,100861.13
2022-11-19T04:35:50.394Z,100859.25
2022-11-19T04:38:20.087Z,100859.59
2022-11-19T04:40:49.958Z,100854.38
2022-11-19T04:43:19.742Z,100868.47
2022-11-19T04:45:49.792Z,100848.75
2022-11-19T04:48:19.532Z,100871.59
2022-11-19T04:50:52.027Z,100872.91
2022-11-19T04:53:21.816Z,100871.63
2022-11-19T04:55:51.558Z,100810.66
2022-11-19T04:58:21.343Z,100861.66
2022-11-19T05:00:51.269Z,100884.25
2022-11-19T05:03:21.157Z,100884.25
2022-11-19T05:05:53.609Z,100892.06
2022-11-19T05:08:24.386Z,100814.91
2022-11-19T05:10:54.373Z,100885.69
2022-11-19T05:13:24.289Z,100877.16
2022-11-19T05:15:54.018Z,100879.22
2022-11-19T05:18:23.873Z,100891.28
2022-11-19T05:20:56.257Z,100889.78
2022-11-19T05:23:26.326Z,100889.13
2022-11-19T05:25:56.096Z,100896.31
2022-11-19T05:28:37.925Z,100892.16
2022-11-19T05:31:08.933Z,100903.59
2022-11-19T05:33:38.678Z,100882.16
2022-11-19T05:36:11.765Z,100888.78
2022-11-19T05:38:41.513Z,100888.47
2022-11-19T05:41:11.272Z,100879.22
2022-11-19T05:43:41.026Z,100897.59
2022-11-19T05:46:10.755Z,100894.56
2022-11-19T05:48:40.508Z,100888.28
2022-11-19T05:51:16.269Z,100896.63
2022-11-19T05:53:46.477Z,100901.31
2022-11-19T05:56:16.296Z,100878.66
2022-11-19T05:58:46.220Z,100895.22
2022-11-19T06:01:17.688Z,100885.31
2022-11-19T06:03:47.435Z,100891.72
2022-11-19T06:06:19.833Z,100892.16
2022-11-19T06:08:51.228Z,100885.41
2022-11-19T06:11:33.517Z,100849.09
2022-11-19T06:14:03.668Z,100899.13
2022-11-19T06:16:33.614Z,100908.06
2022-11-19T06:19:03.355Z,100888.13
2022-11-19T06:21:35.785Z,100905.44
2022-11-19T06:24:05.569Z,100909.31
2022-11-19T06:26:35.361Z,100918.38
2022-11-19T06:29:05.442Z,100919.25
2022-11-19T06:31:35.554Z,100925.78
2022-11-19T06:34:09.292Z,100934.59
2022-11-19T06:36:45.092Z,100937.09
2022-11-19T06:39:19.333Z,100936.31
2022-11-19T06:42:15.229Z,100924.38
2022-11-19T06:44:45.017Z,100941.00
2022-11-19T06:47:18.243Z,100949.94
2022-11-19T06:49:48.036Z,100959.41
2022-11-19T06:52:23.834Z,100953.53
2022-11-19T06:54:57.298Z,100952.34
2022-11-19T06:57:30.248Z,100959.19
2022-11-19T07:00:03.227Z,100943.94
2022-11-19T07:02:35.115Z,100965.16
2022-11-19T07:05:05.222Z,100964.16
2022-11-19T07:07:39.680Z,100961.25
2022-11-19T07:10:12.202Z,100974.53
2022-11-19T07:12:41.999Z,100972.88
2022-11-19T07:15:13.153Z,100958.53
2022-11-19T07:17:43.086Z,100973.56
2022-11-19T07:20:14.169Z,100989.13
2022-11-19T07:22:46.592Z,100989.69
2022-11-19T07:25:16.457Z,100986.13
2022-11-19T07:27:48.798Z,100979.03
2022-11-19T07:30:22.394Z,100984.72
2022-11-19T07:32:52.342Z,100991.63
2022-11-19T07:35:23.230Z,100977.66
2022-11-19T07:37:55.643Z,100993.25
2022-11-19T07:40:25.603Z,100992.25
2022-11-19T07:42:53.825Z,100989.44
2022-11-19T07:45:25.075Z,101000.06
2022-11-19T07:47:54.914Z,101003.34
2022-11-19T07:50:28.258Z,101004.91
2022-11-19T07:53:03.472Z,100998.69
2022-11-19T07:55:37.314Z,101009.28
2022-11-19T07:58:08.176Z,101001.63
2022-11-19T08:00:39.046Z,100996.84
2022-11-19T08:03:12.958Z,101015.56
2022-11-19T08:05:46.204Z,101019.16
2022-11-19T08:08:19.626Z,101005.63
2022-11-19T08:10:49.435Z,101022.25
2022-11-19T08:13:19.241Z,101012.34
2022-11-19T08:15:50.052Z,100994.09
2022-11-19T08:18:17.415Z,101021.66
2022-11-19T08:20:48.789Z,101021.22
2022-11-19T08:23:21.332Z,101026.03
2022-11-19T08:25:53.062Z,101013.31
2022-11-19T08:28:22.950Z,101001.59
2022-11-19T08:30:53.907Z,100976.75
2022-11-19T08:33:29.962Z,100998.59
2022-11-19T08:36:01.764Z,101001.66
2022-11-19T08:38:38.463Z,100979.06
2022-11-19T08:41:21.622Z,100998.72
2022-11-19T08:43:51.411Z,101001.28
2022-11-19T08:46:21.250Z,101008.16
2022-11-19T08:48:53.073Z,100988.44
2022-11-19T08:51:22.889Z,101004.47
2022-11-19T08:53:56.965Z,100995.44
2022-11-19T08:56:30.295Z,101008.91
2022-11-19T08:59:02.999Z,101009.28
2022-11-19T09:01:33.683Z,101007.72
2022-11-19T09:04:03.582Z,100996.72
2022-11-19T09:06:38.309Z,101013.47
2022-11-19T09:09:12.845Z,101011.84
2022-11-19T09:11:43.246Z,101000.22
2022-11-19T09:14:14.353Z,101013.59
2022-11-19T09:16:44.223Z,101030.13
2022-11-19T09:19:14.163Z,101030.13
2022-11-19T09:21:44.019Z,101021.75
2022-11-19T09:24:18.754Z,101033.59
2022-11-19T09:26:52.628Z,101020.09
2022-11-19T09:29:23.288Z,101031.16
2022-11-19T09:31:53.158Z,101012.88
2022-11-19T09:34:26.120Z,101025.31
2022-11-19T09:36:56.078Z,101005.72
2022-11-19T09:39:29.546Z,101011.78
2022-11-19T09:42:04.953Z,101027.22
2022-11-19T09:44:48.874Z,101026.03
2022-11-19T09:47:30.514Z,101036.81
2022-11-19T09:50:09.248Z,101031.75
2022-11-19T09:52:46.787Z,101023.63
2022-11-19T09:55:25.348Z,101006.63
2022-11-19T09:57:58.997Z,101010.22
2022-11-19T10:00:31.119Z,100986.75
2022-11-19T10:03:04.074Z,100999.31
2022-11-19T10:05:44.007Z,101007.38
2022-11-19T10:08:28.505Z,100960.75
2022-11-19T10:11:14.420Z,101003.75
2022-11-19T10:13:52.970Z,101000.59
2022-11-19T10:16:35.729Z,100996.81
2022-11-19T10:19:17.700Z,100999.59
2022-11-19T10:21:57.258Z,100983.19
2022-11-19T10:24:37.241Z,101000.59
2022-11-19T10:27:14.414Z,100997.72
2022-11-19T10:29:44.442Z,101003.78
2022-11-19T10:32:25.214Z,101006.03
2022-11-19T10:35:03.234Z,100981.47
2022-11-19T10:37:38.167Z,101002.25
2022-11-19T10:40:15.062Z,100993.28
2022-11-19T10:42:54.156Z,100991.53
2022-11-19T10:45:27.607Z,100995.97
2022-11-19T10:48:09.595Z,100984.09
2022-11-19T10:50:40.575Z,100972.66
2022-11-19T10:53:19.107Z,100992.84
2022-11-19T10:55:54.719Z,100976.44
2022-11-19T10:58:35.043Z,100994.81
2022-11-19T11:01:07.797Z,100970.44
2022-11-19T11:03:46.949Z,100972.09
2022-11-19T11:06:16.897Z,100977.38
2022-11-19T11:08:54.372Z,100981.44
2022-11-19T11:11:49.027Z,100975.94
2022-11-19T11:14:37.817Z,100973.81
2022-11-19T11:17:21.575Z,100973.50
2022-11-19T11:20:00.161Z,100966.06
2022-11-19T11:22:30.996Z,100967.69
2022-11-19T11:25:07.282Z,100952.91
2022-11-19T11:27:45.197Z,100954.94
2022-11-19T11:30:22.293Z,100926.06
2022-11-19T11:32:52.098Z,100956.50
2022-11-19T11:35:34.360Z,100901.28
2022-11-19T11:38:05.940Z,100954.72
2022-11-19T11:40:35.790Z,100950.75
2022-11-19T11:43:07.699Z,100951.91
2022-11-19T11:45:43.813Z,100960.06
2022-11-19T11:48:23.048Z,100957.41
2022-11-19T11:50:54.046Z,100951.66
2022-11-19T11:53:32.727Z,100942.59
2022-11-19T11:56:06.374Z,100940.00
2022-11-19T11:58:37.287Z,100933.47
2022-11-19T12:01:18.440Z,100932.97
2022-11-19T12:04:00.177Z,100944.78
2022-11-19T12:06:38.535Z,100950.22
2022-11-19T12:09:16.590Z,100928.28
2022-11-19T12:11:58.505Z,100923.69
2022-11-19T12:14:32.038Z,100935.94
2022-11-19T12:17:21.306Z,100934.06
2022-11-19T12:20:16.611Z,100922.50
2022-11-19T12:23:00.906Z,100931.78
2022-11-19T12:25:37.930Z,100927.47
2022-11-19T12:28:22.894Z,100924.31
2022-11-19T12:31:07.127Z,100921.09
2022-11-19T12:34:04.563Z,100903.22
2022-11-19T12:36:48.484Z,100934.03
2022-11-19T12:39:33.733Z,100912.63
2022-11-19T12:42:34.164Z,100932.22
2022-11-19T12:45:15.312Z,100922.81
2022-11-19T12:48:07.741Z,100916.28
2022-11-19T12:50:51.077Z,100862.91
2022-11-19T12:53:48.888Z,100931.47
2022-11-19T12:56:32.885Z,100935.13
2022-11-19T12:59:13.574Z,100922.91
2022-11-19T13:01:47.984Z,100932.44
2022-11-19T13:04:22.231Z,100930.19
2022-11-19T13:07:01.253Z,100919.56
2022-11-19T13:09:41.000Z,100928.25
2022-11-19T13:12:16.285Z,100922.84
2022-11-19T13:14:54.627Z,100934.16
2022-11-19T13:17:31.398Z,100917.13
2022-11-19T13:20:05.715Z,100931.91
2022-11-19T13:22:39.976Z,100926.88
2022-11-19T13:25:21.641Z,100921.75
2022-11-19T13:27:54.024Z,100917.25
2022-11-19T13:30:26.835Z,100890.59
2022-11-19T13:33:06.147Z,100905.78
2022-11-19T13:35:43.322Z,100920.91
2022-11-19T13:38:23.653Z,100918.69
2022-11-19T13:40:57.194Z,100907.50
2022-11-19T13:43:42.780Z,100894.19
2022-11-19T13:46:23.903Z,100905.50
2022-11-19T13:49:04.374Z,100899.72
2022-11-19T13:51:39.646Z,100887.50
2022-11-19T13:54:25.525Z,100896.59
2022-11-19T13:57:00.203Z,100891.22
2022-11-19T13:59:35.420Z,100897.00
2022-11-19T14:02:30.158Z,100894.16
2022-11-19T14:05:37.310Z,100885.03
2022-11-19T14:08:25.230Z,100870.75
2022-11-19T14:11:16.409Z,100862.97
2022-11-19T14:14:03.955Z,100865.16
2022-11-19T14:16:55.689Z,100889.06
2022-11-19T14:19:44.473Z,100888.31
2022-11-19T14:22:48.838Z,100885.25
2022-11-19T14:25:56.451Z,100875.09
2022-11-19T14:28:51.297Z,100893.28
2022-11-19T14:31:23.364Z,100884.28
2022-11-19T14:34:05.530Z,100884.38
2022-11-19T14:36:46.427Z,100881.50
2022-11-19T14:39:26.013Z,100894.72
2022-11-19T14:42:15.411Z,100881.00
2022-11-19T14:44:48.720Z,100883.69
2022-11-19T14:47:37.648Z,100892.69
2022-11-19T14:50:11.996Z,100889.97
2022-11-19T14:52:54.276Z,100885.44
2022-11-19T14:55:26.317Z,100887.22
2022-11-19T14:58:01.629Z,100882.81
2022-11-19T15:00:38.143Z,100876.59
2022-11-19T15:03:16.147Z,100884.94
2022-11-19T15:05:50.130Z,100875.94
2022-11-19T15:08:31.567Z,100897.47
2022-11-19T15:11:10.365Z,100855.44
2022-11-19T15:13:41.909Z,100886.78
2022-11-19T15:16:21.876Z,100879.69
2022-11-19T15:19:19.114Z,100836.84
2022-11-19T15:22:31.558Z,100866.41
2022-11-19T15:25:29.203Z,100865.78
2022-11-19T15:28:15.633Z,100862.50
2022-11-19T15:31:20.225Z,100872.56
2022-11-19T15:34:35.055Z,100868.94
2022-11-19T15:37:26.146Z,100881.19
2022-11-19T15:39:59.911Z,100860.22
2022-11-19T15:42:35.495Z,100878.47
2022-11-19T15:45:11.047Z,100855.13
2022-11-19T15:47:47.298Z,100874.38
2022-11-19T15:50:23.666Z,100865.53
2022-11-19T15:53:02.844Z,100854.00
2022-11-19T15:55:34.244Z,100839.44
2022-11-19T15:58:15.122Z,100837.94
2022-11-19T16:00:48.312Z,100847.41
2022-11-19T16:03:21.623Z,100827.50
2022-11-19T16:06:05.273Z,100841.34
2022-11-19T16:08:36.064Z,100839.81
2022-11-19T16:11:20.694Z,100828.28
2022-11-19T16:14:07.326Z,100812.63
2022-11-19T16:16:53.566Z,100849.59
2022-11-19T16:19:29.248Z,100861.06
2022-11-19T16:22:08.505Z,100863.50
2022-11-19T16:24:52.962Z,100866.63
2022-11-19T16:27:26.316Z,100855.50
2022-11-19T16:29:57.436Z,100857.84
2022-11-19T16:32:30.281Z,100856.88
2022-11-19T16:35:12.874Z,100845.94
2022-11-19T16:37:45.811Z,100862.25
2022-11-19T16:40:20.515Z,100835.00
2022-11-19T16:42:51.794Z,100870.22
2022-11-19T16:45:25.193Z,100869.19
2022-11-19T16:47:58.214Z,100832.97
2022-11-19T16:50:33.771Z,100867.72
2022-11-19T16:53:07.372Z,100870.97
2022-11-19T16:55:42.967Z,100870.44
2022-11-19T16:58:22.176Z,100849.06
2022-11-19T17:00:55.772Z,100871.59
2022-11-19T17:03:39.597Z,100879.25
2022-11-19T17:06:11.854Z,100839.91
2022-11-19T17:08:44.417Z,100877.31
2022-11-19T17:11:30.397Z,100862.88
2022-11-19T17:14:00.219Z,100877.88
2022-11-19T17:16:30.092Z,100873.09
2022-11-19T17:19:16.608Z,100882.09
2022-11-19T17:21:58.657Z,100862.41
2022-11-19T17:24:34.126Z,100857.13
2022-11-19T17:27:03.909Z,100873.41
2022-11-19T17:29:33.830Z,100866.47
2022-11-19T17:32:06.771Z,100861.78
2022-11-19T17:34:49.282Z,100868.81
2022-11-19T17:37:20.274Z,100858.72
2022-11-19T17:39:52.885Z,100852.31
2022-11-19T17:42:35.246Z,100863.16
2022-11-19T17:45:11.652Z,100878.00
2022-11-19T17:47:43.474Z,100867.41
2022-11-19T17:50:13.326Z,100811.28
2022-11-19T17:52:46.564Z,100854.78
2022-11-19T17:55:23.011Z,100864.75
2022-11-19T17:57:58.234Z,100879.59
2022-11-19T18:00:29.165Z,100880.38
2022-11-19T18:03:02.897Z,100865.16
2022-11-19T18:05:37.311Z,100871.91
2022-11-19T18:08:07.670Z,100873.38
2022-11-19T18:10:40.154Z,100873.59
2022-11-19T18:13:10.793Z,100829.69
2022-11-19T18:15:43.283Z,100863.84
2022-11-19T18:18:13.319Z,100823.72
2022-11-19T18:20:43.174Z,100873.69
2022-11-19T18:23:15.395Z,100874.72
2022-11-19T18:25:51.901Z,100874.06
2022-11-19T18:28:28.048Z,100873.19
2022-11-19T18:30:58.035Z,100854.56
2022-11-19T18:33:31.316Z,100878.22
2022-11-19T18:36:02.342Z,100866.75
2022-11-19T18:38:34.062Z,100854.56
2022-11-19T18:41:08.074Z,100851.69
2022-11-19T18:43:50.434Z,100880.75
2022-11-19T18:46:20.318Z,100877.59
2022-11-19T18:48:50.344Z,100849.97
2022-11-19T18:51:20.330Z,100873.50
2022-11-19T18:53:54.275Z,100875.25
2022-11-19T18:56:26.899Z,100845.53
2022-11-19T18:59:00.438Z,100872.75
2022-11-19T19:01:36.996Z,100874.47
2022-11-19T19:04:07.514Z,100845.53
2022-11-19T19:06:37.680Z,100884.78
2022-11-19T19:09:07.556Z,100865.31
2022-11-19T19:12:07.401Z,100884.91
2022-11-19T19:14:41.081Z,100880.75
2022-11-19T19:17:11.191Z,100878.13
2022-11-19T19:19:41.621Z,100882.28
2022-11-19T19:22:12.441Z,100892.22
2022-11-19T19:24:42.298Z,100881.63
2022-11-19T19:27:15.010Z,100880.75
2022-11-19T19:29:45.038Z,100887.97
2022-11-19T19:32:14.918Z,100889.31
2022-11-19T19:34:45.845Z,100882.38
2022-11-19T19:37:15.790Z,100893.75
2022-11-19T19:39:45.799Z,100884.97
2022-11-19T19:42:18.319Z,100839.00
2022-11-19T19:44:51.241Z,100903.31
2022-11-19T19:47:21.322Z,100898.59
2022-11-19T19:49:51.441Z,100897.44
2022-11-19T19:52:25.327Z,100895.88
2022-11-19T19:54:55.487Z,100875.50
2022-11-19T19:57:31.414Z,100882.75
2022-11-19T20:00:01.286Z,100881.41
2022-11-19T20:02:31.204Z,100872.59
2022-11-19T20:05:09.347Z,100880.22
2022-11-19T20:07:39.373Z,100877.84
2022-11-19T20:10:11.057Z,100886.38
2022-11-19T20:12:56.066Z,100846.06
2022-11-19T20:15:27.318Z,100887.81
2022-11-19T20:17:57.316Z,100877.09
2022-11-19T20:20:27.274Z,100877.44
2022-11-19T20:22:57.537Z,100876.59
2022-11-19T20:25:27.473Z,100877.06
2022-11-19T20:27:59.963Z,100875.31
2022-11-19T20:30:29.890Z,100845.13
2022-11-19T20:32:59.927Z,100850.78
2022-11-19T20:35:33.338Z,100847.34
2022-11-19T20:38:04.291Z,100862.22
2022-11-19T20:40:34.167Z,100853.13
2022-11-19T20:43:23.814Z,100853.41
2022-11-19T20:45:55.591Z,100849.72
2022-11-19T20:48:32.082Z,100859.69
2022-11-19T20:51:01.975Z,100792.78
2022-11-19T20:53:32.226Z,100851.50
2022-11-19T20:56:08.709Z,100865.63
2022-11-19T20:58:44.842Z,100853.38
2022-11-19T21:01:15.701Z,100866.41
2022-11-19T21:03:45.632Z,100865.53
2022-11-19T21:06:15.652Z,100833.09
2022-11-19T21:08:50.376Z,100851.00
2022-11-19T21:11:21.307Z,100852.69
2022-11-19T21:13:53.970Z,100848.84
2022-11-19T21:16:25.677Z,100855.78
2022-11-19T21:18:55.589Z,100852.88
2022-11-19T21:21:28.616Z,100849.78
2022-11-19T21:23:58.649Z,100846.09
2022-11-19T21:26:30.344Z,100827.56
2022-11-19T21:29:05.065Z,100824.09
2022-11-19T21:31:45.428Z,100848.56
2022-11-19T21:34:17.800Z,100853.59
2022-11-19T21:36:49.999Z,100845.66
2022-11-19T21:39:21.574Z,100838.13
2022-11-19T21:41:52.590Z,100825.41
2022-11-19T21:44:25.193Z,100840.06
2022-11-19T21:46:55.321Z,100779.81
2022-11-19T21:49:28.263Z,100811.72
2022-11-19T21:51:59.112Z,100844.13
2022-11-19T21:54:28.945Z,100840.06
2022-11-19T21:56:59.355Z,100797.22
2022-11-19T21:59:32.897Z,100823.78
2022-11-19T22:02:07.332Z,100837.38
2022-11-19T22:04:37.259Z,100820.88
2022-11-19T22:07:07.365Z,100838.72
2022-11-19T22:09:40.298Z,100833.69
2022-11-19T22:12:10.216Z,100817.94
2022-11-19T22:14:42.641Z,100838.34
2022-11-19T22:17:12.538Z,100835.63
2022-11-19T22:19:43.375Z,100838.72
2022-11-19T22:22:13.286Z,100821.09
2022-11-19T22:24:43.083Z,100825.91
2022-11-19T22:27:12.897Z,100811.97
2022-11-19T22:29:45.484Z,100802.41
2022-11-19T22:32:15.308Z,100819.19
2022-11-19T22:34:45.131Z,100819.19
2022-11-19T22:37:16.007Z,100811.03
2022-11-19T22:39:47.906Z,100826.25
2022-11-19T22:42:21.268Z,100835.69
2022-11-19T22:44:54.306Z,100827.25
2022-11-19T22:47:24.089Z,100812.34
2022-11-19T22:49:57.368Z,100796.25
2022-11-19T22:52:31.010Z,100825.28
2022-11-19T22:55:00.845Z,100778.34
2022-11-19T22:57:30.611Z,100822.56
2022-11-19T23:00:03.015Z,100818.53
2022-11-19T23:02:39.235Z,100823.75
2022-11-19T23:05:12.549Z,100820.94
2022-11-19T23:07:42.501Z,100825.63
2022-11-19T23:10:14.346Z,100811.72
2022-11-19T23:12:56.710Z,100812.94
2022-11-19T23:15:29.181Z,100801.75
2022-11-19T23:17:59.035Z,100807.31
2022-11-19T23:20:28.843Z,100829.78
2022-11-19T23:23:04.406Z,100810.53
2022-11-19T23:25:35.315Z,100809.44
2022-11-19T23:28:05.232Z,100770.31
2022-11-19T23:30:42.979Z,100811.19
2022-11-19T23:33:16.335Z,100767.81
2022-11-19T23:35:46.210Z,100817.28
2022-11-19T23:38:16.322Z,100805.97
2022-11-19T23:40:59.291Z,100810.44
2022-11-19T23:43:36.408Z,100806.94
2022-11-19T23:46:14.466Z,100790.75
2022-11-19T23:48:45.892Z,100800.13
2022-11-19T23:51:17.702Z,100783.69
2022-11-19T23:53:47.810Z,100785.88
2022-11-19T23:56:19.479Z,100778.69
2022-11-19T23:58:50.732Z,100765.97
